Time;durP1;ratioP1;P1;durP2;ratioP2;P2;SDS_P1;SDS_P2;PMS_P1;PMS_P2;Temp;Humidity;BMP_temperature;BMP_pressure;BME280_temperature;BME280_humidity;BME280_pressure;Samples;Min_cycle;Max_cycle;Signal;HPM_P1;HPM_P2
2023/07/21 00:02:52;;;;;;;1.30;1.20;;;26.10;50.70;;;;;;222408;1254;22506;-49
2023/07/21 00:07:57;;;;;;;2.20;1.10;;;26.00;50.70;;;;;;222634;1266;24247;-47
2023/07/21 00:13:01;;;;;;;1.10;1.00;;;26.00;50.80;;;;;;222602;1253;22512;-48
2023/07/21 00:18:05;;;;;;;1.00;0.90;;;26.00;50.80;;;;;;222546;1264;22515;-47
2023/07/21 00:23:10;;;;;;;1.70;1.20;;;26.00;50.80;;;;;;222525;1253;25300;-47
2023/07/21 00:28:14;;;;;;;1.40;1.30;;;26.00;50.90;;;;;;222480;1251;22534;-50
2023/07/21 00:33:19;;;;;;;1.40;1.30;;;26.00;51.20;;;;;;222607;1257;22525;-50
2023/07/21 00:38:23;;;;;;;2.00;1.20;;;26.00;50.90;;;;;;222643;1263;22502;-46
2023/07/21 00:43:27;;;;;;;1.30;1.20;;;26.00;50.90;;;;;;222765;1267;25275;-47
2023/07/21 00:48:32;;;;;;;1.20;1.00;;;26.00;51.00;;;;;;222521;1260;22640;-45
2023/07/21 00:53:37;;;;;;;2.00;1.10;;;26.00;51.30;;;;;;222644;1254;22521;-48
2023/07/21 00:58:41;;;;;;;1.60;1.30;;;25.90;51.20;;;;;;222417;1257;22507;-48
2023/07/21 01:03:45;;;;;;;2.50;1.20;;;26.00;51.40;;;;;;222588;1254;22511;-47
2023/07/21 01:08:49;;;;;;;1.60;1.20;;;26.00;51.10;;;;;;222450;1263;22679;-47
2023/07/21 01:13:57;;;;;;;4.00;1.70;;;26.00;51.10;;;;;;222593;1264;24048;-48
2023/07/21 01:19:02;;;;;;;2.30;1.20;;;26.00;51.10;;;;;;222668;1254;24244;-47
2023/07/21 01:24:23;;;;;;;1.40;1.30;;;25.90;51.10;;;;;;222733;1254;22515;-47
2023/07/21 01:29:28;;;;;;;1.10;1.10;;;25.90;51.10;;;;;;222643;1251;25340;-50
2023/07/21 01:34:34;;;;;;;1.30;1.20;;;25.90;51.20;;;;;;222680;1267;24183;-49
2023/07/21 01:39:39;;;;;;;1.30;1.30;;;25.90;51.20;;;;;;222569;1254;22511;-47
2023/07/21 01:44:44;;;;;;;2.50;1.30;;;25.90;51.30;;;;;;222634;1267;25227;-48
2023/07/21 01:49:48;;;;;;;2.70;1.10;;;25.90;51.40;;;;;;222566;1263;22515;-48
2023/07/21 01:54:59;;;;;;;1.40;1.30;;;25.80;51.20;;;;;;222586;1251;24234;-46
2023/07/21 02:00:10;;;;;;;1.20;1.20;;;25.90;51.20;;;;;;222830;1255;22545;-48
2023/07/21 02:05:22;;;;;;;1.40;1.30;;;25.80;51.50;;;;;;222843;1252;24180;-44
2023/07/21 02:10:26;;;;;;;1.70;1.20;;;25.90;51.30;;;;;;222673;1260;22617;-47
2023/07/21 02:15:42;;;;;;;1.10;0.90;;;25.80;51.20;;;;;;222448;1253;294267;-47
2023/07/21 02:20:46;;;;;;;1.60;1.40;;;25.80;51.20;;;;;;222554;1266;23000;-47
2023/07/21 02:25:51;;;;;;;1.30;1.20;;;25.80;51.20;;;;;;222587;1251;22520;-46
2023/07/21 02:31:03;;;;;;;1.50;1.40;;;25.80;51.20;;;;;;222635;1266;22529;-49
2023/07/21 02:36:08;;;;;;;1.50;1.40;;;25.80;51.20;;;;;;222857;1267;24358;-47
2023/07/21 02:41:12;;;;;;;1.10;1.10;;;25.80;51.20;;;;;;222612;1257;22507;-48
2023/07/21 02:46:16;;;;;;;1.30;1.20;;;25.70;51.50;;;;;;222875;1267;22547;-46
2023/07/21 02:51:20;;;;;;;1.50;1.40;;;25.70;51.10;;;;;;222681;1263;23883;-49
2023/07/21 02:56:25;;;;;;;1.40;1.30;;;25.70;51.20;;;;;;222480;1266;24324;-44
2023/07/21 03:01:36;;;;;;;1.50;1.40;;;25.70;51.20;;;;;;222458;1260;22506;-45
2023/07/21 03:06:41;;;;;;;1.40;1.30;;;25.70;51.20;;;;;;225481;1263;25310;-47
2023/07/21 03:11:45;;;;;;;1.50;1.20;;;25.80;51.00;;;;;;222867;1260;24205;-48
2023/07/21 03:17:19;;;;;;;1.40;1.30;;;25.70;51.00;;;;;;222611;1267;22495;-45
2023/07/21 03:22:25;;;;;;;2.50;1.70;;;25.70;51.10;;;;;;222633;1261;22648;-46
2023/07/21 03:27:29;;;;;;;1.20;1.20;;;25.70;51.50;;;;;;222636;1267;25274;-48
2023/07/21 03:32:34;;;;;;;2.30;1.50;;;25.70;51.30;;;;;;222979;1253;22599;-47
2023/07/21 03:37:39;;;;;;;1.40;1.30;;;25.60;51.20;;;;;;222908;1261;22526;-46
2023/07/21 03:42:44;;;;;;;1.30;1.20;;;25.60;51.30;;;;;;222467;1257;22523;-48
2023/07/21 03:47:49;;;;;;;2.90;1.70;;;25.60;51.30;;;;;;222551;1254;22519;-49
2023/07/21 03:52:53;;;;;;;1.50;1.40;;;25.60;51.70;;;;;;222807;1253;22504;-46
2023/07/21 03:57:57;;;;;;;2.50;1.40;;;25.60;51.30;;;;;;222800;1260;26615;-47
2023/07/21 04:03:01;;;;;;;2.40;1.60;;;25.60;51.40;;;;;;222555;1256;24308;-47
2023/07/21 04:08:07;;;;;;;1.30;1.30;;;25.60;51.40;;;;;;222284;1259;22537;-48
2023/07/21 04:13:12;;;;;;;1.50;1.40;;;25.60;51.80;;;;;;222684;1266;25584;-49
2023/07/21 04:18:16;;;;;;;2.50;1.60;;;25.60;51.50;;;;;;222727;1266;22513;-46
2023/07/21 04:23:20;;;;;;;1.70;1.60;;;25.60;51.80;;;;;;222430;1266;22560;-47
2023/07/21 04:28:25;;;;;;;1.90;1.80;;;25.50;51.50;;;;;;222474;1267;23964;-47
2023/07/21 04:33:29;;;;;;;1.50;1.40;;;25.50;51.40;;;;;;222563;1257;24247;-48
2023/07/21 04:38:36;;;;;;;1.40;1.30;;;25.50;51.50;;;;;;222449;1256;22596;-47
2023/07/21 04:43:46;;;;;;;2.00;1.40;;;25.60;51.70;;;;;;222778;1260;22508;-45
2023/07/21 04:48:50;;;;;;;1.40;1.30;;;25.50;51.60;;;;;;222724;1266;22563;-47
2023/07/21 04:54:03;;;;;;;2.30;1.70;;;25.50;51.90;;;;;;223132;1260;22507;-47
2023/07/21 04:59:08;;;;;;;1.20;1.20;;;25.60;51.70;;;;;;222896;1256;25299;-46
2023/07/21 05:04:14;;;;;;;1.60;1.50;;;25.50;51.60;;;;;;222855;1254;22627;-47
2023/07/21 05:09:19;;;;;;;1.50;1.40;;;25.50;51.70;;;;;;223162;1260;25311;-47
2023/07/21 05:14:24;;;;;;;1.50;1.30;;;25.60;52.10;;;;;;222591;1253;23861;-47
2023/07/21 05:19:42;;;;;;;1.70;1.30;;;25.60;51.80;;;;;;222925;1253;23511;-47
2023/07/21 05:25:11;;;;;;;1.60;1.50;;;25.60;51.70;;;;;;222770;1254;24180;-46
2023/07/21 05:30:17;;;;;;;1.60;1.50;;;25.50;51.50;;;;;;222769;1263;25380;-46
2023/07/21 05:35:28;;;;;;;1.30;1.20;;;25.50;51.50;;;;;;222714;1260;24196;-46
2023/07/21 05:40:37;;;;;;;1.90;1.60;;;25.50;51.30;;;;;;222844;1261;25459;-47
2023/07/21 05:45:41;;;;;;;3.00;1.60;;;25.60;51.30;;;;;;222615;1266;23949;-46
2023/07/21 05:50:46;;;;;;;1.40;1.30;;;25.60;51.30;;;;;;222613;1257;23955;-47
2023/07/21 05:55:53;;;;;;;1.70;1.50;;;25.60;51.20;;;;;;222433;1267;24686;-48
2023/07/21 06:01:15;;;;;;;1.80;1.70;;;25.70;51.50;;;;;;222374;1267;23964;-49
2023/07/21 06:06:20;;;;;;;1.60;1.20;;;25.70;51.00;;;;;;222493;1260;22651;-47
2023/07/21 06:11:43;;;;;;;2.20;1.60;;;25.70;51.00;;;;;;222721;1263;22643;-47
2023/07/21 06:17:05;;;;;;;1.30;1.20;;;25.70;51.00;;;;;;222530;1266;22825;-48
2023/07/21 06:22:10;;;;;;;1.40;1.30;;;25.70;51.00;;;;;;222441;1260;22507;-48
2023/07/21 06:27:14;;;;;;;1.50;1.40;;;25.70;51.00;;;;;;222739;1256;22582;-47
2023/07/21 06:32:23;;;;;;;1.40;1.10;;;25.70;51.30;;;;;;222675;1260;24225;-43
2023/07/21 06:37:38;;;;;;;1.30;1.20;;;25.70;50.90;;;;;;223032;1253;24212;-46
2023/07/21 06:43:06;;;;;;;2.10;1.40;;;25.70;51.00;;;;;;222670;1263;22623;-46
2023/07/21 06:48:27;;;;;;;1.40;1.30;;;25.70;50.80;;;;;;223219;1267;24311;-47
2023/07/21 06:53:52;;;;;;;1.40;1.30;;;25.80;50.80;;;;;;222788;1255;24494;-50
2023/07/21 06:58:56;;;;;;;1.30;1.10;;;25.80;50.70;;;;;;222958;1264;25279;-46
2023/07/21 07:04:01;;;;;;;1.20;1.10;;;25.80;50.80;;;;;;223156;1266;24333;-46
2023/07/21 07:09:05;;;;;;;1.90;1.30;;;25.90;50.70;;;;;;223100;1263;24330;-48
2023/07/21 07:14:11;;;;;;;1.90;1.20;;;25.80;50.60;;;;;;222978;1264;24083;-49
2023/07/21 07:19:16;;;;;;;1.20;1.10;;;25.90;50.60;;;;;;223017;1264;25394;-46
2023/07/21 07:24:20;;;;;;;1.40;1.20;;;25.90;50.60;;;;;;222900;1266;25533;-45
2023/07/21 07:29:25;;;;;;;1.10;1.00;;;25.90;50.50;;;;;;222653;1264;25613;-44
2023/07/21 07:34:29;;;;;;;1.80;1.40;;;25.90;50.40;;;;;;222730;1261;22507;-47
2023/07/21 07:39:34;;;;;;;1.00;1.00;;;26.00;50.80;;;;;;222399;1260;22526;-46
2023/07/21 07:44:39;;;;;;;1.20;1.10;;;26.00;50.40;;;;;;222598;1262;22564;-49
2023/07/21 07:49:46;;;;;;;1.30;1.10;;;26.00;50.70;;;;;;222556;1265;25336;-47
2023/07/21 07:54:50;;;;;;;1.10;1.00;;;26.00;50.20;;;;;;222630;1262;22634;-46
2023/07/21 07:59:55;;;;;;;0.80;0.80;;;26.00;50.10;;;;;;222845;1263;22638;-46
2023/07/21 08:04:59;;;;;;;1.10;1.10;;;26.00;50.40;;;;;;222655;1268;22870;-46
2023/07/21 08:10:05;;;;;;;0.90;0.90;;;26.00;49.90;;;;;;222483;1260;22695;-45
2023/07/21 08:15:10;;;;;;;0.80;0.80;;;26.00;50.00;;;;;;222708;1260;25383;-45
2023/07/21 08:20:18;;;;;;;1.00;1.00;;;26.10;50.00;;;;;;222601;1263;23007;-45
2023/07/21 08:25:26;;;;;;;1.20;1.10;;;26.10;49.80;;;;;;222679;1263;22946;-49
2023/07/21 08:30:30;;;;;;;2.40;1.20;;;26.10;49.70;;;;;;223156;1267;23614;-48
2023/07/21 08:35:50;;;;;;;0.80;0.80;;;26.10;49.60;;;;;;222505;1260;22511;-44
2023/07/21 08:41:08;;;;;;;0.90;0.90;;;26.20;49.40;;;;;;222572;1266;22511;-47
2023/07/21 08:46:12;;;;;;;1.00;0.90;;;26.20;49.40;;;;;;222512;1266;23120;-47
2023/07/21 08:51:16;;;;;;;0.90;0.90;;;26.20;49.40;;;;;;222507;1267;22596;-46
2023/07/21 08:56:20;;;;;;;2.10;1.40;;;26.30;50.10;;;;;;222387;1258;22753;-47
2023/07/21 09:01:25;;;;;;;2.20;0.90;;;26.30;49.30;;;;;;222632;1260;22520;-44
2023/07/21 09:06:29;;;;;;;0.90;0.90;;;26.30;49.80;;;;;;222805;1261;24290;-48
2023/07/21 09:11:35;;;;;;;0.90;0.70;;;26.30;49.40;;;;;;222742;1252;22591;-45
2023/07/21 09:16:39;;;;;;;1.40;0.90;;;26.30;49.30;;;;;;223032;1264;25384;-46
2023/07/21 09:21:54;;;;;;;0.90;0.90;;;26.40;49.40;;;;;;222703;1261;22507;-45
2023/07/21 09:27:14;;;;;;;1.10;0.80;;;26.40;49.60;;;;;;222791;1257;24183;-46
2023/07/21 09:32:21;;;;;;;1.00;0.90;;;26.40;49.20;;;;;;222446;1264;22548;-47
2023/07/21 09:37:27;;;;;;;0.80;0.80;;;26.40;49.40;;;;;;222546;1245;22661;-47
2023/07/21 09:42:32;;;;;;;0.80;0.80;;;26.50;49.00;;;;;;222402;1258;22593;-49
2023/07/21 09:47:38;;;;;;;0.90;0.90;;;26.50;49.00;;;;;;222557;1261;25458;-48
2023/07/21 09:52:48;;;;;;;0.70;0.70;;;26.50;49.00;;;;;;222815;1260;22530;-47
2023/07/21 09:57:54;;;;;;;2.20;1.00;;;26.50;48.50;;;;;;222199;1254;24343;-48
2023/07/21 10:02:59;;;;;;;0.60;0.60;;;26.60;48.40;;;;;;222430;1248;22634;-47
2023/07/21 10:08:04;;;;;;;2.90;0.70;;;26.50;48.40;;;;;;222348;1260;22511;-48
2023/07/21 10:13:11;;;;;;;0.70;0.70;;;26.60;48.70;;;;;;222426;1268;23605;-46
2023/07/21 10:18:18;;;;;;;1.90;0.80;;;26.70;48.40;;;;;;222396;1264;25348;-47
2023/07/21 10:23:34;;;;;;;1.10;0.70;;;26.60;48.80;;;;;;222606;1264;25488;-49
2023/07/21 10:28:46;;;;;;;1.90;0.70;;;26.70;48.90;;;;;;222383;1261;22511;-48
2023/07/21 10:34:09;;;;;;;0.70;0.70;;;26.80;49.00;;;;;;222730;1263;24196;-42
2023/07/21 10:39:22;;;;;;;0.80;0.80;;;26.80;48.50;;;;;;223988;1264;24339;-42
2023/07/21 10:44:35;;;;;;;0.50;0.50;;;26.90;48.30;;;;;;222767;1256;22548;-42
2023/07/21 10:49:39;;;;;;;2.20;0.90;;;26.90;48.10;;;;;;222756;1265;22510;-43
2023/07/21 10:54:44;;;;;;;0.60;0.60;;;26.90;48.50;;;;;;222616;1266;22602;-44
2023/07/21 10:59:48;;;;;;;1.20;0.90;;;26.90;47.60;;;;;;222869;1266;24354;-43
2023/07/21 11:04:52;;;;;;;0.70;0.70;;;27.00;47.60;;;;;;222695;1266;24174;-42
2023/07/21 11:10:00;;;;;;;1.10;0.70;;;27.00;47.70;;;;;;222464;1261;22500;-42
2023/07/21 11:15:06;;;;;;;1.80;1.10;;;27.00;47.60;;;;;;222484;1266;22636;-42
2023/07/21 11:20:12;;;;;;;0.90;0.70;;;27.10;47.00;;;;;;222744;1266;24842;-43
2023/07/21 11:25:16;;;;;;;1.40;0.70;;;27.20;47.30;;;;;;222619;1266;22626;-42
2023/07/21 11:30:21;;;;;;;0.60;0.60;;;27.20;47.30;;;;;;222661;1266;22511;-41
2023/07/21 11:35:32;;;;;;;0.70;0.70;;;27.20;47.60;;;;;;222941;1260;23762;-43
2023/07/21 11:40:37;;;;;;;1.00;0.90;;;27.20;47.40;;;;;;222829;1261;25211;-46
2023/07/21 11:45:41;;;;;;;0.70;0.70;;;27.20;47.90;;;;;;222238;1266;24791;-43
2023/07/21 11:50:54;;;;;;;0.80;0.80;;;27.10;47.90;;;;;;222423;1260;22523;-42
2023/07/21 11:55:58;;;;;;;1.00;0.70;;;27.10;47.90;;;;;;222468;1267;22573;-44
2023/07/21 12:01:07;;;;;;;2.20;0.70;;;27.20;47.50;;;;;;222463;1268;22514;-45
2023/07/21 12:06:11;;;;;;;1.30;0.80;;;27.20;47.70;;;;;;222610;1266;22521;-42
2023/07/21 12:11:16;;;;;;;1.10;0.70;;;27.20;47.90;;;;;;222622;1260;24181;-42
2023/07/21 12:16:22;;;;;;;1.10;0.70;;;27.30;47.50;;;;;;222619;1268;22666;-43
2023/07/21 12:21:26;;;;;;;0.80;0.80;;;27.30;47.50;;;;;;222753;1266;25389;-41
2023/07/21 12:26:31;;;;;;;0.60;0.60;;;27.40;47.40;;;;;;222572;1267;24215;-43
2023/07/21 12:31:35;;;;;;;1.50;0.80;;;27.40;47.40;;;;;;222652;1264;24211;-42
2023/07/21 12:36:40;;;;;;;0.80;0.70;;;27.40;47.10;;;;;;222757;1263;22550;-41
2023/07/21 12:41:44;;;;;;;1.30;0.80;;;27.40;47.30;;;;;;222422;1261;22515;-42
2023/07/21 12:46:50;;;;;;;0.80;0.80;;;27.30;47.60;;;;;;222398;1260;22521;-44
2023/07/21 12:51:54;;;;;;;0.80;0.80;;;27.30;46.90;;;;;;222719;1260;22949;-42
2023/07/21 12:56:59;;;;;;;0.70;0.70;;;27.30;47.00;;;;;;222813;1254;23600;-41
2023/07/21 13:02:03;;;;;;;0.80;0.70;;;27.40;46.90;;;;;;222602;1261;24763;-42
2023/07/21 13:07:09;;;;;;;1.00;0.80;;;27.50;46.60;;;;;;222679;1263;25300;-43
2023/07/21 13:12:14;;;;;;;0.70;0.70;;;27.30;46.70;;;;;;222739;1260;25450;-42
2023/07/21 13:17:19;;;;;;;1.40;0.90;;;27.30;46.30;;;;;;222566;1253;25321;-42
2023/07/21 13:22:23;;;;;;;0.70;0.70;;;27.30;46.20;;;;;;222595;1261;22724;-43
2023/07/21 13:27:27;;;;;;;1.10;0.80;;;27.30;46.00;;;;;;222851;1258;24171;-43
2023/07/21 13:32:32;;;;;;;0.70;0.70;;;27.30;46.00;;;;;;222648;1261;22501;-42
2023/07/21 13:37:37;;;;;;;0.60;0.60;;;27.40;45.90;;;;;;222777;1268;25478;-43
2023/07/21 13:42:42;;;;;;;1.80;0.80;;;27.30;46.10;;;;;;222615;1263;22812;-42
2023/07/21 13:47:48;;;;;;;0.80;0.70;;;27.40;45.40;;;;;;222557;1257;22520;-41
2023/07/21 13:52:53;;;;;;;0.70;0.60;;;27.50;45.00;;;;;;222522;1251;24357;-42
2023/07/21 13:57:58;;;;;;;0.80;0.70;;;27.50;45.40;;;;;;222664;1266;22720;-42
2023/07/21 14:03:09;;;;;;;0.90;0.90;;;27.50;45.30;;;;;;216033;1291;542819;-42
2023/07/21 14:08:15;;;;;;;0.60;0.60;;;27.50;45.60;;;;;;219585;1272;22530;-44
2023/07/21 14:13:19;;;;;;;1.90;0.80;;;27.40;46.40;;;;;;219689;1279;134112;-46
2023/07/21 14:18:24;;;;;;;0.90;0.90;;;27.40;46.30;;;;;;221243;1271;22531;-44
2023/07/21 14:23:29;;;;;;;0.70;0.70;;;27.30;45.10;;;;;;221388;1265;25340;-44
2023/07/21 14:28:34;;;;;;;0.70;0.70;;;27.30;45.50;;;;;;221356;1267;25171;-44
2023/07/21 14:33:39;;;;;;;1.10;1.00;;;27.40;45.20;;;;;;221062;1263;22511;-42
2023/07/21 14:38:47;;;;;;;0.70;0.70;;;27.30;45.80;;;;;;221021;1270;23719;-43
2023/07/21 14:43:52;;;;;;;0.70;0.70;;;27.40;45.80;;;;;;221139;1273;22514;-45
2023/07/21 14:48:56;;;;;;;0.60;0.60;;;27.30;46.20;;;;;;221400;1266;24920;-42
2023/07/21 14:54:02;;;;;;;1.10;0.80;;;27.30;46.50;;;;;;221341;1272;22500;-46
2023/07/21 14:59:08;;;;;;;4.10;0.90;;;27.20;46.50;;;;;;221244;1259;24051;-43
2023/07/21 15:04:12;;;;;;;1.20;0.90;;;27.20;46.80;;;;;;221538;1273;22517;-43
2023/07/21 15:09:20;;;;;;;2.20;0.80;;;27.20;47.30;;;;;;221288;1262;22511;-45
2023/07/21 15:14:24;;;;;;;0.80;0.80;;;27.10;47.70;;;;;;221453;1262;22522;-45
2023/07/21 15:19:28;;;;;;;0.80;0.80;;;27.10;47.40;;;;;;221513;1265;22573;-43
2023/07/21 15:24:32;;;;;;;1.30;0.80;;;27.10;46.80;;;;;;221362;1268;22514;-45
2023/07/21 15:29:37;;;;;;;1.70;1.00;;;27.10;46.70;;;;;;221445;1260;24466;-43
2023/07/21 15:34:41;;;;;;;2.50;1.00;;;27.10;46.60;;;;;;221315;1269;22789;-43
2023/07/21 15:39:46;;;;;;;0.80;0.80;;;27.00;46.60;;;;;;221273;1266;25260;-44
2023/07/21 15:44:50;;;;;;;0.90;0.90;;;27.00;46.70;;;;;;221428;1272;22605;-44
2023/07/21 15:49:55;;;;;;;1.30;1.20;;;27.00;47.00;;;;;;221228;1273;25348;-43
2023/07/21 15:55:00;;;;;;;1.10;1.00;;;26.90;46.70;;;;;;221333;1272;23294;-46
2023/07/21 16:00:13;;;;;;;1.40;1.30;;;26.90;46.40;;;;;;221440;1266;26532;-44
2023/07/21 16:05:18;;;;;;;2.20;1.50;;;26.90;46.20;;;;;;221596;1261;22514;-45
2023/07/21 16:10:23;;;;;;;1.60;1.40;;;26.90;46.10;;;;;;221453;1267;22530;-42
2023/07/21 16:15:30;;;;;;;2.60;1.20;;;26.90;46.60;;;;;;221400;1274;22514;-44
2023/07/21 16:20:37;;;;;;;3.80;1.30;;;26.90;46.20;;;;;;221469;1272;22514;-43
2023/07/21 16:25:41;;;;;;;1.30;1.20;;;26.90;46.00;;;;;;221256;1267;24181;-42
2023/07/21 16:30:46;;;;;;;1.30;1.20;;;26.90;46.00;;;;;;221306;1270;22530;-42
2023/07/21 16:35:51;;;;;;;1.10;0.90;;;26.80;45.30;;;;;;221259;1266;22856;-42
2023/07/21 16:40:55;;;;;;;1.60;1.10;;;26.70;45.70;;;;;;221355;1263;22551;-43
2023/07/21 16:46:01;;;;;;;2.20;1.30;;;26.70;45.80;;;;;;221242;1272;24764;-45
2023/07/21 16:51:07;;;;;;;2.10;1.50;;;26.70;46.10;;;;;;221437;1251;24691;-42
2023/07/21 16:56:13;;;;;;;1.20;1.10;;;26.70;46.50;;;;;;221507;1259;22511;-44
2023/07/21 17:01:19;;;;;;;4.00;1.10;;;26.70;46.50;;;;;;221518;1253;23857;-44
2023/07/21 17:06:25;;;;;;;3.60;1.40;;;26.70;47.20;;;;;;221076;1272;24050;-43
2023/07/21 17:11:30;;;;;;;1.60;1.20;;;26.80;47.50;;;;;;221196;1273;24248;-42
2023/07/21 17:16:36;;;;;;;0.90;0.90;;;26.70;47.50;;;;;;221466;1269;22527;-43
2023/07/21 17:21:40;;;;;;;3.10;1.30;;;26.70;48.20;;;;;;221499;1272;25576;-44
2023/07/21 17:26:47;;;;;;;2.80;1.10;;;26.70;48.80;;;;;;221304;1259;22602;-43
2023/07/21 17:31:51;;;;;;;4.90;1.30;;;26.70;49.50;;;;;;221353;1266;24345;-42
2023/07/21 17:36:57;;;;;;;3.30;1.50;;;26.70;49.50;;;;;;221160;1270;24354;-43
2023/07/21 17:42:03;;;;;;;1.50;1.30;;;26.70;49.70;;;;;;221313;1268;22608;-45
2023/07/21 17:47:08;;;;;;;2.30;1.20;;;26.70;50.20;;;;;;221426;1266;23367;-44
2023/07/21 17:52:13;;;;;;;1.50;1.40;;;26.70;50.30;;;;;;221547;1272;22538;-43
2023/07/21 17:57:20;;;;;;;2.20;1.20;;;26.70;50.70;;;;;;221625;1269;22531;-43
2023/07/21 18:02:24;;;;;;;2.40;1.40;;;26.60;51.30;;;;;;221406;1274;22633;-43
2023/07/21 18:07:29;;;;;;;4.30;1.40;;;26.60;51.30;;;;;;221466;1273;25928;-41
2023/07/21 18:12:34;;;;;;;3.40;1.40;;;26.60;51.10;;;;;;221483;1266;22515;-43
2023/07/21 18:17:38;;;;;;;1.40;1.30;;;26.60;51.60;;;;;;221391;1272;22576;-44
2023/07/21 18:22:44;;;;;;;1.80;1.50;;;26.60;51.80;;;;;;221117;1273;24225;-43
2023/07/21 18:27:49;;;;;;;1.40;1.20;;;26.50;51.70;;;;;;221362;1271;22523;-44
2023/07/21 18:32:54;;;;;;;1.60;1.40;;;26.60;52.30;;;;;;221451;1270;25325;-41
2023/07/21 18:38:00;;;;;;;2.70;1.70;;;26.50;52.30;;;;;;221342;1271;25540;-44
2023/07/21 18:43:05;;;;;;;2.80;1.50;;;26.50;52.60;;;;;;221633;1269;24176;-42
2023/07/21 18:48:10;;;;;;;2.40;1.80;;;26.50;52.60;;;;;;221514;1267;22531;-44
2023/07/21 18:53:14;;;;;;;2.80;1.50;;;26.50;52.90;;;;;;222252;1270;22602;-41
2023/07/21 18:58:22;;;;;;;1.50;1.30;;;26.50;52.50;;;;;;222133;1270;25214;-44
2023/07/21 19:03:28;;;;;;;1.80;1.50;;;26.50;52.70;;;;;;221951;1270;24816;-43
2023/07/21 19:08:34;;;;;;;1.40;1.30;;;26.50;52.60;;;;;;221824;1260;24552;-42
2023/07/21 19:13:39;;;;;;;1.40;1.30;;;26.40;52.60;;;;;;221900;1264;24739;-44
2023/07/21 19:18:44;;;;;;;2.80;1.60;;;26.40;52.60;;;;;;222094;1263;23895;-46
2023/07/21 19:23:50;;;;;;;1.70;1.60;;;26.40;52.60;;;;;;221849;1259;22519;-45
2023/07/21 19:28:54;;;;;;;1.60;1.50;;;26.40;53.00;;;;;;222227;1267;22598;-44
2023/07/21 19:33:59;;;;;;;2.50;1.60;;;26.30;52.60;;;;;;222045;1264;25339;-43
2023/07/21 19:39:05;;;;;;;1.60;1.40;;;26.30;52.60;;;;;;222017;1264;24148;-46
2023/07/21 19:44:10;;;;;;;2.20;1.60;;;26.30;52.40;;;;;;222120;1269;22952;-43
2023/07/21 19:49:17;;;;;;;3.00;1.60;;;26.30;52.60;;;;;;222039;1252;24175;-43
2023/07/21 19:54:22;;;;;;;1.80;1.60;;;26.30;52.20;;;;;;222327;1255;24331;-43
2023/07/21 19:59:26;;;;;;;1.60;1.50;;;26.30;52.30;;;;;;221912;1260;22521;-42
2023/07/21 20:04:30;;;;;;;1.40;1.30;;;26.40;52.40;;;;;;221842;1268;23879;-44
2023/07/21 20:09:35;;;;;;;2.00;1.70;;;26.30;52.30;;;;;;221711;1264;24344;-43
2023/07/21 20:14:39;;;;;;;2.20;2.00;;;26.30;52.40;;;;;;221743;1270;22536;-42
2023/07/21 20:19:44;;;;;;;2.10;1.80;;;26.30;52.50;;;;;;222096;1269;24227;-43
2023/07/21 20:24:48;;;;;;;2.00;1.80;;;26.30;52.60;;;;;;221798;1267;22513;-44
2023/07/21 20:29:52;;;;;;;1.80;1.70;;;26.30;52.90;;;;;;222023;1267;22515;-45
2023/07/21 20:34:56;;;;;;;1.60;1.50;;;26.20;53.00;;;;;;221798;1264;22592;-43
2023/07/21 20:40:00;;;;;;;1.80;1.70;;;26.30;53.10;;;;;;222046;1264;22516;-43
2023/07/21 20:45:06;;;;;;;1.90;1.70;;;26.20;53.10;;;;;;221872;1267;22521;-44
2023/07/21 20:50:10;;;;;;;2.10;1.60;;;26.20;53.20;;;;;;221989;1257;26506;-43
2023/07/21 20:55:14;;;;;;;2.00;1.90;;;26.20;53.40;;;;;;221817;1270;23892;-48
2023/07/21 21:00:22;;;;;;;2.30;1.70;;;26.10;53.40;;;;;;221863;1263;22630;-44
2023/07/21 21:05:26;;;;;;;1.70;1.60;;;26.10;53.40;;;;;;221920;1270;22537;-43
2023/07/21 21:10:30;;;;;;;4.80;2.00;;;26.20;53.50;;;;;;222094;1264;25492;-43
2023/07/21 21:15:35;;;;;;;1.80;1.70;;;26.10;53.50;;;;;;221841;1264;22762;-42
2023/07/21 21:20:40;;;;;;;1.90;1.60;;;26.10;53.60;;;;;;222039;1257;23879;-46
2023/07/21 21:25:54;;;;;;;2.00;1.70;;;26.10;53.70;;;;;;221674;1263;22538;-42
2023/07/21 21:31:00;;;;;;;2.00;1.70;;;26.10;54.20;;;;;;221905;1267;22766;-43
2023/07/21 21:36:04;;;;;;;2.10;1.60;;;26.10;53.80;;;;;;222162;1263;24388;-42
2023/07/21 21:41:08;;;;;;;1.90;1.80;;;26.10;53.90;;;;;;221837;1257;22867;-44
2023/07/21 21:46:13;;;;;;;1.80;1.70;;;26.00;53.80;;;;;;221761;1267;22532;-43
2023/07/21 21:51:17;;;;;;;3.20;1.80;;;26.00;53.90;;;;;;221709;1269;22529;-41
2023/07/21 21:56:22;;;;;;;3.60;2.10;;;26.10;53.50;;;;;;221986;1263;22633;-44
2023/07/21 22:01:28;;;;;;;1.80;1.70;;;26.00;54.30;;;;;;221922;1264;22521;-42
2023/07/21 22:06:33;;;;;;;2.90;1.80;;;26.00;53.90;;;;;;221724;1270;22521;-42
2023/07/21 22:11:37;;;;;;;2.60;1.80;;;26.00;54.30;;;;;;221879;1257;22546;-45
2023/07/21 22:16:41;;;;;;;2.50;2.00;;;26.00;54.00;;;;;;221822;1255;22523;-42
2023/07/21 22:21:46;;;;;;;2.20;2.00;;;26.00;54.40;;;;;;221938;1264;22609;-42
2023/07/21 22:26:50;;;;;;;2.10;1.80;;;26.00;54.10;;;;;;221756;1257;24215;-43
2023/07/21 22:31:55;;;;;;;1.80;1.70;;;26.00;54.10;;;;;;221817;1267;23376;-44
2023/07/21 22:36:59;;;;;;;2.80;2.00;;;26.00;54.20;;;;;;222043;1266;25498;-44
2023/07/21 22:42:05;;;;;;;1.80;1.70;;;26.00;54.30;;;;;;221855;1259;25300;-42
2023/07/21 22:47:09;;;;;;;2.50;1.80;;;26.00;54.40;;;;;;221997;1264;24342;-43
2023/07/21 22:52:14;;;;;;;2.80;2.00;;;25.90;54.50;;;;;;222104;1254;22508;-42
2023/07/21 22:57:18;;;;;;;2.40;2.00;;;26.00;55.10;;;;;;221841;1257;22632;-41
2023/07/21 23:02:23;;;;;;;3.80;2.00;;;25.90;54.70;;;;;;222026;1263;22512;-43
2023/07/21 23:07:27;;;;;;;2.00;1.90;;;25.90;54.50;;;;;;221803;1267;23916;-42
2023/07/21 23:12:32;;;;;;;2.10;1.90;;;25.90;54.60;;;;;;221780;1263;24094;-41
2023/07/21 23:17:36;;;;;;;3.00;1.60;;;25.90;54.70;;;;;;221922;1270;24231;-45
2023/07/21 23:22:40;;;;;;;2.60;2.10;;;25.90;54.80;;;;;;222115;1254;22758;-46
2023/07/21 23:27:44;;;;;;;2.00;1.90;;;25.90;54.80;;;;;;222066;1259;25448;-42
2023/07/21 23:32:49;;;;;;;2.20;2.00;;;25.80;55.00;;;;;;221870;1267;24256;-44
2023/07/21 23:37:56;;;;;;;3.00;2.20;;;25.90;55.10;;;;;;222049;1259;24218;-45
2023/07/21 23:43:00;;;;;;;2.30;2.10;;;25.80;54.90;;;;;;221743;1256;24013;-44
2023/07/21 23:48:05;;;;;;;3.10;2.20;;;25.80;54.80;;;;;;221850;1267;25426;-43
2023/07/21 23:53:09;;;;;;;3.70;2.00;;;25.80;54.70;;;;;;221958;1266;22518;-43
2023/07/21 23:58:13;;;;;;;2.40;2.00;;;25.80;54.70;;;;;;221845;1270;25835;-43
